Langkawi International Airport Langkawi MY
ICAO: WMKL
IATA: LGK
Category: Medium
Scheduled Services: Yes

Elevation: 29 ft
TransAlt. 11000 ft.

Airport Communications:
APP:119.4
ATIS:128.2
GND:121.8
TWR:118.5

WMKL Zoom In..

Runways:

(A) RW 03 length 12500 ft width 148 ft
ILS 110.70 / hdg 34

(B) RW 21 length 12500 ft width 148 ft
---- / hdg 214

Location; WMKL
Day. 06 / Time. 22.00 Zulu
* QNH: 1008
* Temperature: 26° c. 78.8°f.
* Wind from: 000° Speed 00 kn.
Dewpoint: 25° c.
Visibility: 10 km or more.
Clouds: Few 2600 ft.

WMKL 062200Z 00000KT 9999 FEW026 26/25 Q1008


Wind - Calm.

 
 
jpsmedia worldairports.se 2020   terms of use